createdAt,value
2023-05-21T00:01:19.991Z,3.85
2023-05-21T00:03:52.845Z,4.10
2023-05-21T00:08:58.386Z,2.42
2023-05-21T00:14:04.083Z,3.20
2023-05-21T00:16:38.145Z,3.65
2023-05-21T00:19:11.295Z,4.30
2023-05-21T00:21:45.993Z,3.28
2023-05-21T00:24:18.861Z,4.38
2023-05-21T00:26:51.622Z,4.72
2023-05-21T00:29:24.844Z,5.65
2023-05-21T00:31:59.201Z,3.97
2023-05-21T00:34:31.973Z,5.18
2023-05-21T00:37:05.151Z,4.70
2023-05-21T00:39:37.851Z,4.40
2023-05-21T00:42:10.584Z,3.80
2023-05-21T00:44:43.246Z,5.28
2023-05-21T00:47:18.343Z,3.67
2023-05-21T00:49:53.373Z,4.72
2023-05-21T00:52:27.544Z,4.80
2023-05-21T00:55:00.408Z,4.10
2023-05-21T00:57:33.702Z,3.28
2023-05-21T01:00:10.821Z,3.78
2023-05-21T01:02:45.782Z,3.10
2023-05-21T01:05:18.936Z,4.53
2023-05-21T01:07:52.063Z,4.03
2023-05-21T01:10:26.175Z,6.43
2023-05-21T01:12:59.513Z,4.60
2023-05-21T01:15:32.382Z,3.00
2023-05-21T01:18:07.724Z,2.35
2023-05-21T01:20:42.475Z,4.45
2023-05-21T01:23:17.724Z,4.20
2023-05-21T01:25:50.590Z,2.88
2023-05-21T01:28:23.472Z,5.53
2023-05-21T01:33:37.771Z,4.95
2023-05-21T01:36:16.591Z,3.67
2023-05-21T01:38:58.671Z,4.10
2023-05-21T01:41:35.999Z,3.30
2023-05-21T01:44:10.297Z,4.93
2023-05-21T01:46:43.044Z,5.57
2023-05-21T01:49:18.441Z,3.20
2023-05-21T01:51:51.860Z,4.40
2023-05-21T01:54:25.942Z,3.60
2023-05-21T01:57:01.663Z,6.10
2023-05-21T01:59:34.767Z,3.60
2023-05-21T02:02:07.915Z,5.45
2023-05-21T02:04:41.364Z,3.50
2023-05-21T02:07:14.433Z,3.00
2023-05-21T02:12:24.088Z,5.10
2023-05-21T02:14:57.648Z,4.18
2023-05-21T02:17:34.180Z,4.18
2023-05-21T02:20:11.553Z,5.00
2023-05-21T02:22:46.627Z,4.80
2023-05-21T02:25:20.932Z,3.55
2023-05-21T02:27:54.021Z,4.03
2023-05-21T02:30:26.907Z,4.07
2023-05-21T02:33:01.103Z,3.47
2023-05-21T02:35:34.579Z,5.70
2023-05-21T02:38:09.128Z,5.03
2023-05-21T02:40:43.284Z,4.70
2023-05-21T02:43:17.057Z,3.45
2023-05-21T02:45:51.852Z,3.88
2023-05-21T02:48:25.290Z,7.07
2023-05-21T02:50:58.230Z,3.20
2023-05-21T02:53:31.192Z,2.78
2023-05-21T02:56:05.892Z,5.60
2023-05-21T02:58:38.640Z,4.07
2023-05-21T03:03:44.582Z,3.97
2023-05-21T03:08:50.673Z,5.28
2023-05-21T03:11:24.956Z,4.75
2023-05-21T03:13:57.995Z,4.88
2023-05-21T03:16:34.601Z,4.15
2023-05-21T03:19:07.507Z,4.28
2023-05-21T03:21:41.809Z,5.65
2023-05-21T03:24:15.355Z,5.82
2023-05-21T03:26:50.387Z,4.55
2023-05-21T03:29:23.292Z,4.22
2023-05-21T03:31:56.844Z,3.92
2023-05-21T03:34:30.288Z,3.35
2023-05-21T03:37:03.135Z,5.78
2023-05-21T03:39:37.107Z,6.53
2023-05-21T03:42:14.146Z,5.30
2023-05-21T03:44:52.276Z,4.03
2023-05-21T03:47:49.053Z,5.85
2023-05-21T03:50:22.085Z,4.53
2023-05-21T03:55:27.632Z,4.93
2023-05-21T03:58:01.926Z,4.03
2023-05-21T04:00:37.412Z,5.07
2023-05-21T04:03:12.002Z,4.63
2023-05-21T04:05:45.020Z,5.40
2023-05-21T04:08:18.986Z,3.30
2023-05-21T04:10:51.772Z,5.30
2023-05-21T04:13:25.814Z,4.93
2023-05-21T04:15:58.746Z,5.70
2023-05-21T04:18:34.202Z,6.00
2023-05-21T04:21:07.498Z,8.25
2023-05-21T04:26:20.071Z,4.00
2023-05-21T04:31:28.849Z,6.35
2023-05-21T04:34:01.694Z,6.00
2023-05-21T04:36:36.251Z,5.07
2023-05-21T04:39:09.291Z,4.45
2023-05-21T04:41:42.231Z,5.13
2023-05-21T04:46:52.683Z,4.22
2023-05-21T04:49:34.325Z,6.57
2023-05-21T04:52:08.314Z,5.18
2023-05-21T04:54:41.992Z,5.53
2023-05-21T04:57:15.088Z,5.18
2023-05-21T04:59:49.263Z,5.68
2023-05-21T05:02:22.201Z,5.95
2023-05-21T05:07:27.958Z,5.95
2023-05-21T05:10:00.720Z,4.93
2023-05-21T05:12:33.936Z,5.97
2023-05-21T05:15:09.507Z,3.97
2023-05-21T05:17:43.290Z,4.85
2023-05-21T05:22:48.772Z,3.67
2023-05-21T05:25:21.977Z,7.53
2023-05-21T05:27:54.790Z,6.68
2023-05-21T05:30:29.092Z,5.43
2023-05-21T05:33:08.063Z,6.22
2023-05-21T05:35:41.638Z,6.07
2023-05-21T05:38:14.690Z,5.00
2023-05-21T05:40:48.041Z,6.60
2023-05-21T05:43:21.043Z,5.00
2023-05-21T05:45:57.385Z,7.55
2023-05-21T05:48:30.298Z,5.43
2023-05-21T05:51:04.354Z,6.38
2023-05-21T05:53:37.957Z,5.75
2023-05-21T05:56:11.124Z,5.20
2023-05-21T05:58:44.936Z,6.13
2023-05-21T06:01:22.762Z,6.80
2023-05-21T06:03:57.364Z,6.55
2023-05-21T06:06:30.292Z,6.55
2023-05-21T06:09:04.838Z,7.45
2023-05-21T06:11:37.741Z,5.50
2023-05-21T06:14:12.976Z,5.35
2023-05-21T06:16:47.638Z,6.80
2023-05-21T06:19:21.052Z,5.63
2023-05-21T06:24:26.884Z,5.57
2023-05-21T06:26:59.823Z,5.20
2023-05-21T06:32:09.552Z,5.68
2023-05-21T06:34:42.480Z,4.43
2023-05-21T06:37:15.732Z,5.97
2023-05-21T06:39:48.577Z,3.83
2023-05-21T06:45:23.225Z,6.05
2023-05-21T06:48:00.695Z,5.57
2023-05-21T06:50:33.518Z,5.03
2023-05-21T06:55:39.262Z,3.93
2023-05-21T06:58:31.097Z,6.80
2023-05-21T07:01:04.038Z,7.47
2023-05-21T07:03:38.729Z,6.28
2023-05-21T07:06:11.605Z,4.60
2023-05-21T07:08:44.843Z,5.07
2023-05-21T07:13:50.844Z,4.65
2023-05-21T07:19:00.607Z,5.72
2023-05-21T07:21:35.452Z,5.65
2023-05-21T07:24:08.578Z,6.65
2023-05-21T07:26:46.740Z,7.97
2023-05-21T07:29:19.777Z,5.32
2023-05-21T07:34:28.050Z,5.68
2023-05-21T07:37:00.859Z,6.72
2023-05-21T07:39:37.855Z,5.85
2023-05-21T07:42:11.725Z,6.00
2023-05-21T07:44:44.677Z,5.45
2023-05-21T07:52:25.064Z,7.20
2023-05-21T08:00:10.378Z,4.88
2023-05-21T08:02:47.966Z,6.63
2023-05-21T08:05:24.436Z,7.25
2023-05-21T08:07:57.846Z,7.60
2023-05-21T08:10:30.768Z,5.75
2023-05-21T08:15:36.721Z,6.50
2023-05-21T08:18:10.067Z,6.25
2023-05-21T08:20:44.599Z,4.55
2023-05-21T08:23:18.467Z,5.20
2023-05-21T08:25:56.900Z,7.63
2023-05-21T08:28:31.536Z,5.43
2023-05-21T08:31:05.381Z,6.00
2023-05-21T08:33:40.491Z,5.05
2023-05-21T08:36:14.610Z,6.88
2023-05-21T08:38:55.202Z,5.57
2023-05-21T08:41:36.238Z,8.65
2023-05-21T08:44:13.193Z,5.75
2023-05-21T08:46:50.737Z,5.32
2023-05-21T08:49:27.888Z,5.40
2023-05-21T08:52:04.171Z,5.70
2023-05-21T08:54:37.548Z,6.82
2023-05-21T08:57:11.360Z,6.10
2023-05-21T08:59:45.139Z,6.38
2023-05-21T09:02:27.058Z,5.68
2023-05-21T09:05:03.172Z,6.82
2023-05-21T09:07:43.300Z,5.97
2023-05-21T09:10:39.019Z,6.45
2023-05-21T09:13:12.551Z,5.82
2023-05-21T09:15:45.949Z,6.35
2023-05-21T09:18:22.643Z,7.30
2023-05-21T09:21:27.443Z,5.38
2023-05-21T09:24:24.023Z,5.43
2023-05-21T09:26:58.836Z,6.50
2023-05-21T09:29:32.205Z,5.70
2023-05-21T09:32:07.956Z,6.68
2023-05-21T09:34:44.111Z,6.15
2023-05-21T09:37:27.182Z,6.60
2023-05-21T09:40:04.724Z,6.47
2023-05-21T09:42:37.597Z,6.18
2023-05-21T09:45:12.260Z,5.85
2023-05-21T09:47:46.908Z,5.43
2023-05-21T09:50:21.087Z,5.10
2023-05-21T09:52:55.484Z,4.28
2023-05-21T09:55:29.782Z,6.72
2023-05-21T09:58:04.661Z,5.85
2023-05-21T10:00:37.804Z,6.25
2023-05-21T10:03:12.983Z,6.93
2023-05-21T10:05:45.883Z,4.78
2023-05-21T10:10:54.189Z,6.55
2023-05-21T10:16:21.234Z,6.07
2023-05-21T10:18:55.464Z,7.65
2023-05-21T10:21:28.725Z,6.30
2023-05-21T10:24:04.201Z,6.00
2023-05-21T10:26:39.638Z,7.43
2023-05-21T10:29:13.604Z,6.63
2023-05-21T10:31:49.898Z,7.90
2023-05-21T10:34:24.844Z,9.75
2023-05-21T10:36:59.136Z,5.40
2023-05-21T10:39:33.450Z,7.88
2023-05-21T10:42:19.660Z,7.60
2023-05-21T10:45:09.374Z,6.05
2023-05-21T10:47:58.250Z,8.45
2023-05-21T10:50:54.054Z,6.10
2023-05-21T10:53:38.677Z,7.03
2023-05-21T10:56:19.189Z,6.72
2023-05-21T10:59:15.176Z,6.90
2023-05-21T11:01:49.793Z,9.18
2023-05-21T11:04:33.145Z,8.32
2023-05-21T11:07:06.283Z,9.18
2023-05-21T11:09:42.401Z,7.25
2023-05-21T11:12:17.967Z,8.70
2023-05-21T11:14:58.662Z,7.38
2023-05-21T11:17:38.752Z,7.03
2023-05-21T11:20:15.183Z,9.48
2023-05-21T11:22:48.209Z,7.72
2023-05-21T11:25:21.004Z,7.57
2023-05-21T11:30:30.190Z,7.30
2023-05-21T11:33:21.112Z,7.60
2023-05-21T11:35:59.788Z,6.55
2023-05-21T11:38:34.065Z,6.20
2023-05-21T11:41:06.867Z,9.63
2023-05-21T11:46:15.978Z,7.35
2023-05-21T11:48:53.844Z,7.05
2023-05-21T11:51:31.985Z,5.18
2023-05-21T11:54:05.260Z,5.88
2023-05-21T11:56:52.714Z,6.05
2023-05-21T12:00:26.663Z,7.85
2023-05-21T12:03:05.975Z,7.57
2023-05-21T12:05:58.160Z,8.88
2023-05-21T12:09:19.510Z,8.63
2023-05-21T12:12:20.557Z,6.25
2023-05-21T12:15:54.719Z,6.95
2023-05-21T12:19:05.433Z,6.07
2023-05-21T12:21:43.490Z,10.48
2023-05-21T12:24:16.898Z,13.13
2023-05-21T12:26:50.227Z,10.27
2023-05-21T12:29:23.767Z,10.98
2023-05-21T12:32:00.756Z,15.50
2023-05-21T12:34:46.215Z,11.75
2023-05-21T12:37:22.989Z,12.50
2023-05-21T12:39:57.269Z,7.90
2023-05-21T12:42:31.790Z,10.10
2023-05-21T12:45:08.228Z,7.70
2023-05-21T12:47:41.356Z,9.20
2023-05-21T12:50:15.696Z,11.60
2023-05-21T12:52:48.552Z,11.85
2023-05-21T12:55:26.438Z,11.45
2023-05-21T12:58:09.052Z,21.05
2023-05-21T13:00:42.956Z,10.00
2023-05-21T13:03:16.559Z,8.98
2023-05-21T13:05:59.469Z,11.15
2023-05-21T13:08:39.476Z,8.88
2023-05-21T13:11:12.997Z,9.13
2023-05-21T13:13:45.883Z,11.98
2023-05-21T13:16:22.145Z,9.43
2023-05-21T13:18:55.228Z,7.82
2023-05-21T13:21:29.571Z,6.25
2023-05-21T13:24:02.409Z,8.77
2023-05-21T13:26:35.372Z,6.00
2023-05-21T13:29:08.406Z,8.55
2023-05-21T13:31:41.681Z,10.07
2023-05-21T13:34:14.758Z,10.00
2023-05-21T13:36:48.993Z,7.55
2023-05-21T13:39:26.784Z,9.80
2023-05-21T13:42:02.192Z,6.90
2023-05-21T13:44:36.531Z,8.73
2023-05-21T13:47:10.379Z,10.43
2023-05-21T13:49:43.379Z,9.00
2023-05-21T13:52:19.649Z,8.13
2023-05-21T13:54:52.932Z,8.57
2023-05-21T13:57:26.826Z,7.18
2023-05-21T14:00:01.123Z,10.65
2023-05-21T14:02:34.624Z,9.40
2023-05-21T14:05:07.913Z,7.25
2023-05-21T14:07:42.769Z,11.15
2023-05-21T14:10:17.831Z,7.57
2023-05-21T14:12:51.595Z,11.57
2023-05-21T14:15:32.263Z,8.65
2023-05-21T14:18:07.920Z,10.15
2023-05-21T14:20:41.139Z,6.43
2023-05-21T14:23:20.100Z,6.55
2023-05-21T14:25:53.060Z,5.97
2023-05-21T14:28:26.289Z,7.82
2023-05-21T14:31:01.468Z,6.85
2023-05-21T14:33:34.858Z,6.97
2023-05-21T14:36:07.986Z,10.70
2023-05-21T14:38:42.163Z,7.18
2023-05-21T14:41:15.210Z,7.38
2023-05-21T14:43:48.543Z,6.18
2023-05-21T14:46:21.530Z,6.63
2023-05-21T14:48:55.387Z,9.63
2023-05-21T14:51:28.217Z,7.03
2023-05-21T14:54:02.433Z,10.05
2023-05-21T14:56:35.351Z,7.68
2023-05-21T14:59:08.226Z,7.25
2023-05-21T15:01:41.094Z,10.30
2023-05-21T15:04:14.223Z,7.25
2023-05-21T15:06:47.286Z,7.97
2023-05-21T15:09:21.628Z,8.30
2023-05-21T15:11:54.810Z,9.20
2023-05-21T15:14:27.851Z,7.20
2023-05-21T15:17:00.863Z,6.68
2023-05-21T15:19:33.716Z,10.95
2023-05-21T15:22:06.784Z,6.68
2023-05-21T15:24:41.346Z,10.82
2023-05-21T15:27:14.288Z,5.75
2023-05-21T15:29:47.543Z,7.35
2023-05-21T15:32:21.789Z,5.85
2023-05-21T15:34:55.171Z,8.35
2023-05-21T15:37:28.296Z,7.75
2023-05-21T15:40:02.661Z,7.57
2023-05-21T15:42:35.667Z,7.82
2023-05-21T15:45:09.888Z,7.55
2023-05-21T15:47:43.088Z,10.63
2023-05-21T15:50:16.038Z,10.80
2023-05-21T15:52:50.359Z,9.75
2023-05-21T15:55:26.605Z,8.52
2023-05-21T15:58:01.419Z,9.77
2023-05-21T16:00:35.514Z,9.77
2023-05-21T16:03:09.246Z,9.73
2023-05-21T16:05:42.130Z,12.95
2023-05-21T16:08:15.434Z,9.90
2023-05-21T16:10:49.687Z,9.70
2023-05-21T16:13:22.545Z,11.88
2023-05-21T16:15:55.400Z,8.48
2023-05-21T16:18:28.417Z,9.65
2023-05-21T16:21:01.366Z,7.72
2023-05-21T16:23:34.558Z,8.60
2023-05-21T16:26:10.636Z,8.50
2023-05-21T16:28:43.459Z,10.40
2023-05-21T16:31:16.395Z,8.93
2023-05-21T16:33:49.559Z,14.43
2023-05-21T16:36:22.444Z,8.65
2023-05-21T16:38:55.387Z,11.30
2023-05-21T16:41:32.861Z,7.63
2023-05-21T16:44:05.900Z,10.30
2023-05-21T16:46:39.983Z,8.82
2023-05-21T16:49:13.083Z,10.38
2023-05-21T16:51:46.079Z,8.20
2023-05-21T16:54:18.927Z,11.48
2023-05-21T16:56:54.640Z,8.65
2023-05-21T16:59:30.158Z,11.15
2023-05-21T17:02:03.008Z,11.65
2023-05-21T17:04:36.162Z,10.43
2023-05-21T17:07:09.445Z,7.85
2023-05-21T17:09:42.368Z,8.18
2023-05-21T17:12:16.725Z,9.68
2023-05-21T17:14:49.592Z,11.15
2023-05-21T17:19:57.153Z,8.32
2023-05-21T17:22:30.193Z,9.05
2023-05-21T17:25:03.108Z,12.55
2023-05-21T17:27:37.706Z,9.27
2023-05-21T17:30:11.238Z,7.65
2023-05-21T17:32:47.294Z,9.45
2023-05-21T17:35:20.444Z,13.32
2023-05-21T17:37:53.642Z,9.52
2023-05-21T17:40:26.400Z,9.13
2023-05-21T17:43:00.597Z,11.18
2023-05-21T17:45:33.660Z,11.95
2023-05-21T17:48:06.878Z,8.07
2023-05-21T17:50:40.309Z,9.27
2023-05-21T17:53:13.910Z,13.45
2023-05-21T17:55:46.818Z,11.00
2023-05-21T17:58:21.118Z,12.48
2023-05-21T18:00:54.071Z,10.70
2023-05-21T18:03:27.000Z,12.43
2023-05-21T18:08:32.519Z,11.48
2023-05-21T18:11:05.488Z,13.00
2023-05-21T18:13:39.680Z,13.43
2023-05-21T18:16:13.173Z,11.13
2023-05-21T18:18:46.216Z,9.25
2023-05-21T18:21:21.912Z,11.48
2023-05-21T18:23:55.116Z,11.90
2023-05-21T18:26:30.145Z,12.07
2023-05-21T18:29:04.751Z,14.20
2023-05-21T18:31:37.721Z,9.80
2023-05-21T18:34:11.052Z,12.10
2023-05-21T18:36:46.855Z,12.98
2023-05-21T18:39:24.469Z,11.18
2023-05-21T18:44:34.682Z,11.25
2023-05-21T18:47:08.213Z,9.75
2023-05-21T18:49:41.082Z,10.18
2023-05-21T18:54:46.614Z,15.73
2023-05-21T18:57:19.509Z,8.85
2023-05-21T19:02:27.154Z,13.48
2023-05-21T19:05:01.745Z,9.55
2023-05-21T19:07:35.024Z,13.73
2023-05-21T19:10:09.119Z,8.02
2023-05-21T19:12:42.878Z,12.40
2023-05-21T19:15:17.192Z,12.20
2023-05-21T19:17:50.185Z,15.38
2023-05-21T19:20:25.028Z,12.68
2023-05-21T19:22:58.029Z,7.38
2023-05-21T19:25:31.528Z,12.10
2023-05-21T19:28:04.400Z,18.13
2023-05-21T19:33:12.196Z,13.43
2023-05-21T19:35:45.402Z,14.65
2023-05-21T19:38:18.470Z,10.70
2023-05-21T19:40:51.370Z,17.02
2023-05-21T19:45:58.353Z,24.05
2023-05-21T19:48:31.208Z,21.25
2023-05-21T19:51:05.240Z,18.33
2023-05-21T19:53:38.142Z,16.08
2023-05-21T19:58:47.269Z,12.55
2023-05-21T20:01:21.848Z,14.85
2023-05-21T20:03:55.174Z,17.52
2023-05-21T20:06:28.128Z,15.27
2023-05-21T20:09:01.000Z,11.52
2023-05-21T20:14:06.880Z,9.43
2023-05-21T20:16:42.296Z,15.95
2023-05-21T20:19:15.811Z,17.25
2023-05-21T20:21:48.856Z,14.15
2023-05-21T20:26:54.988Z,18.30
2023-05-21T20:29:28.861Z,11.80
2023-05-21T20:32:03.248Z,13.73
2023-05-21T20:34:40.498Z,12.40
2023-05-21T20:37:17.409Z,11.75
2023-05-21T20:39:53.877Z,15.43
2023-05-21T20:42:28.586Z,12.32
2023-05-21T20:45:01.797Z,10.95
2023-05-21T20:47:38.382Z,11.07
2023-05-21T20:50:13.202Z,10.63
2023-05-21T20:52:47.400Z,12.43
2023-05-21T20:55:20.894Z,8.23
2023-05-21T20:57:54.291Z,10.48
2023-05-21T21:00:27.153Z,13.02
2023-05-21T21:05:35.100Z,13.98
2023-05-21T21:10:42.685Z,12.15
2023-05-21T21:13:15.757Z,11.45
2023-05-21T21:15:48.568Z,8.70
2023-05-21T21:20:56.041Z,12.27
2023-05-21T21:23:29.974Z,14.35
2023-05-21T21:26:02.830Z,9.10
2023-05-21T21:28:35.658Z,11.90
2023-05-21T21:33:42.858Z,12.07
2023-05-21T21:36:16.093Z,10.85
2023-05-21T21:38:48.869Z,8.77
2023-05-21T21:41:22.013Z,11.85
2023-05-21T21:43:54.919Z,8.45
2023-05-21T21:46:27.771Z,9.82
2023-05-21T21:51:37.047Z,13.05
2023-05-21T21:54:09.904Z,10.30
2023-05-21T21:56:42.877Z,9.82
2023-05-21T22:01:49.340Z,13.48
2023-05-21T22:04:23.718Z,10.00
2023-05-21T22:06:56.989Z,11.43
2023-05-21T22:09:29.923Z,10.82
2023-05-21T22:14:40.588Z,10.48
2023-05-21T22:17:14.187Z,12.35
2023-05-21T22:19:48.834Z,8.27
2023-05-21T22:22:21.749Z,12.75
2023-05-21T22:24:54.920Z,12.93
2023-05-21T22:27:27.775Z,11.25
2023-05-21T22:32:33.879Z,12.27
2023-05-21T22:35:09.694Z,8.32
2023-05-21T22:37:42.505Z,8.55
2023-05-21T22:40:15.386Z,12.18
2023-05-21T22:42:48.165Z,10.00
2023-05-21T22:45:21.850Z,11.35
2023-05-21T22:47:56.668Z,6.97
2023-05-21T22:50:32.955Z,10.52
2023-05-21T22:53:05.922Z,8.57
2023-05-21T22:58:11.582Z,9.97
2023-05-21T23:03:17.588Z,10.30
2023-05-21T23:05:51.842Z,11.38
2023-05-21T23:08:24.757Z,12.43
2023-05-21T23:13:31.351Z,8.50
2023-05-21T23:16:04.477Z,10.10
2023-05-21T23:18:37.473Z,8.93
2023-05-21T23:23:44.506Z,13.65
2023-05-21T23:28:50.263Z,19.48
2023-05-21T23:31:23.315Z,12.02
2023-05-21T23:33:56.954Z,12.05
2023-05-21T23:36:31.413Z,11.57
2023-05-21T23:39:04.787Z,9.48
2023-05-21T23:41:38.722Z,11.65
2023-05-21T23:44:12.622Z,10.73
2023-05-21T23:46:45.405Z,11.75
2023-05-21T23:49:18.268Z,11.30
2023-05-21T23:54:25.129Z,10.85
2023-05-21T23:56:58.206Z,9.23
2023-05-21T23:59:31.138Z,13.13
